UTA7775 USRR-USRO
Flight info
| Callsign | UTA7775 |
|---|---|
| Flight time | 0h 40m |
| Altitude | 25000 |
| Route | ULGUN1E ULGUN R717 INGIR INGIR1J |
| Aircraft | AT76/M-SDFGIRY/S |
Departure
| Time | 2026-04-20 14:34 |
|---|---|
| Airport | Surgut International Airport (USRR) |
Arrival
| Time | 2026-04-20 15:15 |
|---|---|
| Airport | Noyabrsk Airport (USRO) |
| Time | Latitude | Longitude | Altitude | Speed | Heading |
|---|---|---|---|---|---|
| 2026-04-20 14:25 | 61.34133 | 73.41333 | 122 ft | 0 kts | 269° |
| 2026-04-20 14:30 | 61.34136 | 73.41299 | 121 ft | 9 kts | 292° |
| 2026-04-20 14:30 | 61.34166 | 73.41278 | 118 ft | 6 kts | 40° |
| 2026-04-20 14:30 | 61.34175 | 73.41372 | 122 ft | 15 kts | 87° |
| 2026-04-20 14:31 | 61.34176 | 73.41483 | 122 ft | 12 kts | 90° |
| 2026-04-20 14:31 | 61.34183 | 73.41639 | 122 ft | 9 kts | 68° |
| 2026-04-20 14:31 | 61.34216 | 73.41687 | 120 ft | 3 kts | 4° |
| 2026-04-20 14:31 | 61.34273 | 73.41686 | 121 ft | 12 kts | 360° |
| 2026-04-20 14:32 | 61.34343 | 73.41711 | 121 ft | 9 kts | 33° |
| 2026-04-20 14:32 | 61.34381 | 73.41714 | 120 ft | 1 kts | 316° |
| 2026-04-20 14:32 | 61.34383 | 73.41687 | 123 ft | 0 kts | 272° |
| 2026-04-20 14:33 | 61.34384 | 73.41670 | 121 ft | 0 kts | 272° |
| 2026-04-20 14:33 | 61.34383 | 73.41304 | 122 ft | 56 kts | 268° |
| 2026-04-20 14:33 | 61.34373 | 73.40081 | 118 ft | 110 kts | 270° |
| 2026-04-20 14:34 | 61.34368 | 73.38247 | 173 ft | 138 kts | 269° |
| 2026-04-20 14:34 | 61.34416 | 73.36202 | 499 ft | 145 kts | 270° |
| 2026-04-20 14:34 | 61.34252 | 73.34084 | 862 ft | 153 kts | 257° |
| 2026-04-20 14:34 | 61.33979 | 73.31920 | 1342 ft | 155 kts | 258° |
| 2026-04-20 14:35 | 61.34111 | 73.29807 | 1771 ft | 149 kts | 314° |
| 2026-04-20 14:35 | 61.34936 | 73.28654 | 2261 ft | 143 kts | 338° |
| 2026-04-20 14:35 | 61.35864 | 73.28310 | 2705 ft | 136 kts | 26° |
| 2026-04-20 14:35 | 61.36404 | 73.29771 | 3123 ft | 132 kts | 89° |
| 2026-04-20 14:36 | 61.36167 | 73.31610 | 3373 ft | 142 kts | 104° |
| 2026-04-20 14:36 | 61.35925 | 73.33760 | 3492 ft | 159 kts | 98° |
| 2026-04-20 14:36 | 61.35808 | 73.36078 | 3778 ft | 165 kts | 89° |
| 2026-04-20 14:36 | 61.35900 | 73.38470 | 4142 ft | 166 kts | 81° |
| 2026-04-20 14:37 | 61.36114 | 73.40836 | 4503 ft | 167 kts | 77° |
| 2026-04-20 14:37 | 61.36387 | 73.43194 | 4876 ft | 168 kts | 75° |
| 2026-04-20 14:37 | 61.36697 | 73.45550 | 5254 ft | 169 kts | 74° |
| 2026-04-20 14:37 | 61.37039 | 73.47899 | 5619 ft | 170 kts | 73° |
| 2026-04-20 14:38 | 61.37402 | 73.50251 | 5990 ft | 170 kts | 73° |
| 2026-04-20 14:38 | 61.37776 | 73.52599 | 6365 ft | 171 kts | 73° |
| 2026-04-20 14:38 | 61.38159 | 73.54963 | 6728 ft | 172 kts | 73° |
| 2026-04-20 14:38 | 61.38542 | 73.57332 | 7049 ft | 173 kts | 73° |
| 2026-04-20 14:39 | 61.38926 | 73.59728 | 7382 ft | 175 kts | 72° |
| 2026-04-20 14:39 | 61.39311 | 73.62143 | 7728 ft | 176 kts | 72° |
| 2026-04-20 14:39 | 61.39698 | 73.64576 | 8058 ft | 178 kts | 72° |
| 2026-04-20 14:39 | 61.40082 | 73.66998 | 8386 ft | 180 kts | 72° |
| 2026-04-20 14:40 | 61.40479 | 73.69513 | 8682 ft | 184 kts | 72° |
| 2026-04-20 14:40 | 61.40880 | 73.72037 | 9009 ft | 185 kts | 72° |
| 2026-04-20 14:40 | 61.41283 | 73.74583 | 9347 ft | 185 kts | 72° |
| 2026-04-20 14:40 | 61.41691 | 73.77156 | 9664 ft | 188 kts | 72° |
| 2026-04-20 14:41 | 61.42100 | 73.79755 | 9987 ft | 190 kts | 72° |
| 2026-04-20 14:41 | 61.42513 | 73.82385 | 10290 ft | 191 kts | 72° |
| 2026-04-20 14:41 | 61.42930 | 73.85047 | 10565 ft | 194 kts | 71° |
| 2026-04-20 14:41 | 61.43351 | 73.87744 | 10826 ft | 197 kts | 71° |
| 2026-04-20 14:42 | 61.43778 | 73.90472 | 11109 ft | 199 kts | 71° |
| 2026-04-20 14:42 | 61.44213 | 73.93236 | 11393 ft | 200 kts | 71° |
| 2026-04-20 14:42 | 61.44630 | 73.96019 | 11662 ft | 202 kts | 73° |
| 2026-04-20 14:42 | 61.44992 | 73.98872 | 11942 ft | 204 kts | 74° |
| 2026-04-20 14:43 | 61.45350 | 74.01751 | 12211 ft | 206 kts | 74° |
| 2026-04-20 14:43 | 61.45725 | 74.04652 | 12476 ft | 207 kts | 73° |
| 2026-04-20 14:43 | 61.46121 | 74.07566 | 12740 ft | 209 kts | 72° |
| 2026-04-20 14:43 | 61.46528 | 74.10496 | 12995 ft | 211 kts | 72° |
| 2026-04-20 14:44 | 61.46925 | 74.13475 | 13258 ft | 213 kts | 72° |
| 2026-04-20 14:44 | 61.47321 | 74.16440 | 13509 ft | 215 kts | 72° |
| 2026-04-20 14:44 | 61.47727 | 74.19505 | 13760 ft | 217 kts | 72° |
| 2026-04-20 14:44 | 61.48117 | 74.22530 | 14005 ft | 219 kts | 72° |
| 2026-04-20 14:45 | 61.48620 | 74.25522 | 14209 ft | 216 kts | 51° |
| 2026-04-20 14:45 | 61.49752 | 74.27390 | 14399 ft | 206 kts | 16° |
| 2026-04-20 14:45 | 61.51114 | 74.28202 | 14594 ft | 203 kts | 6° |
| 2026-04-20 14:45 | 61.52505 | 74.28798 | 14819 ft | 204 kts | 5° |
| 2026-04-20 14:46 | 61.53902 | 74.29380 | 15039 ft | 205 kts | 5° |
| 2026-04-20 14:46 | 61.55321 | 74.29996 | 15171 ft | 211 kts | 6° |
| 2026-04-20 14:46 | 61.56787 | 74.30690 | 15223 ft | 221 kts | 8° |
| 2026-04-20 14:46 | 61.58309 | 74.31485 | 15249 ft | 230 kts | 9° |
| 2026-04-20 14:47 | 61.59886 | 74.32370 | 15262 ft | 238 kts | 10° |
| 2026-04-20 14:47 | 61.61508 | 74.33314 | 15265 ft | 245 kts | 11° |
| 2026-04-20 14:47 | 61.63173 | 74.34296 | 15279 ft | 251 kts | 11° |
| 2026-04-20 14:48 | 61.66546 | 74.36523 | 15275 ft | 260 kts | 15° |
| 2026-04-20 14:48 | 61.68273 | 74.37771 | 15273 ft | 263 kts | 15° |
| 2026-04-20 14:48 | 61.70017 | 74.38981 | 15273 ft | 265 kts | 14° |
| 2026-04-20 14:48 | 61.71773 | 74.40217 | 15271 ft | 267 kts | 14° |
| 2026-04-20 14:49 | 61.73543 | 74.41457 | 15268 ft | 267 kts | 15° |
| 2026-04-20 14:49 | 61.75284 | 74.42889 | 15267 ft | 270 kts | 18° |
| 2026-04-20 14:49 | 61.77041 | 74.44340 | 15270 ft | 271 kts | 17° |
| 2026-04-20 14:49 | 61.78831 | 74.45564 | 15270 ft | 270 kts | 11° |
| 2026-04-20 14:50 | 61.80666 | 74.46329 | 15269 ft | 268 kts | 2° |
| 2026-04-20 14:50 | 61.82499 | 74.46263 | 15270 ft | 260 kts | 353° |
| 2026-04-20 14:50 | 61.84276 | 74.47082 | 15270 ft | 269 kts | 26° |
| 2026-04-20 14:50 | 61.85839 | 74.49277 | 15267 ft | 271 kts | 28° |
| 2026-04-20 14:51 | 61.87517 | 74.51071 | 15272 ft | 269 kts | 18° |
| 2026-04-20 14:51 | 61.89270 | 74.52424 | 15269 ft | 268 kts | 14° |
| 2026-04-20 14:51 | 61.91058 | 74.53541 | 15268 ft | 268 kts | 11° |
| 2026-04-20 14:51 | 61.92864 | 74.54535 | 15272 ft | 268 kts | 10° |
| 2026-04-20 14:52 | 61.94685 | 74.55387 | 15268 ft | 265 kts | 2° |
| 2026-04-20 14:52 | 61.96508 | 74.55476 | 15282 ft | 262 kts | 358° |
| 2026-04-20 14:52 | 61.98315 | 74.55666 | 15276 ft | 264 kts | 2° |
| 2026-04-20 14:52 | 62.00141 | 74.56244 | 15273 ft | 267 kts | 8° |
| 2026-04-20 14:53 | 62.01958 | 74.57181 | 15273 ft | 269 kts | 11° |
| 2026-04-20 14:53 | 62.03774 | 74.58175 | 15271 ft | 270 kts | 11° |
| 2026-04-20 14:53 | 62.05595 | 74.59166 | 15271 ft | 270 kts | 11° |
| 2026-04-20 14:53 | 62.07417 | 74.60161 | 15271 ft | 270 kts | 11° |
| 2026-04-20 14:54 | 62.09235 | 74.61153 | 15270 ft | 270 kts | 11° |
| 2026-04-20 14:54 | 62.11062 | 74.62156 | 15270 ft | 271 kts | 11° |
| 2026-04-20 14:54 | 62.12887 | 74.63158 | 15270 ft | 271 kts | 11° |
| 2026-04-20 14:54 | 62.14708 | 74.64162 | 15271 ft | 271 kts | 11° |
| 2026-04-20 14:55 | 62.16536 | 74.65173 | 15277 ft | 271 kts | 11° |
| 2026-04-20 14:55 | 62.18364 | 74.66185 | 15276 ft | 271 kts | 11° |
| 2026-04-20 14:55 | 62.20191 | 74.67201 | 15276 ft | 271 kts | 11° |
| 2026-04-20 14:55 | 62.21993 | 74.68206 | 15276 ft | 271 kts | 11° |
| 2026-04-20 14:56 | 62.23818 | 74.69224 | 15275 ft | 271 kts | 11° |
| 2026-04-20 14:56 | 62.25645 | 74.70249 | 15276 ft | 271 kts | 11° |
| 2026-04-20 14:56 | 62.27471 | 74.71278 | 15273 ft | 271 kts | 11° |
| 2026-04-20 14:56 | 62.29295 | 74.72307 | 15288 ft | 271 kts | 12° |
| 2026-04-20 14:57 | 62.31121 | 74.73334 | 15283 ft | 271 kts | 12° |
| 2026-04-20 14:57 | 62.32946 | 74.74367 | 15281 ft | 271 kts | 12° |
| 2026-04-20 14:57 | 62.34154 | 74.75050 | 15278 ft | 271 kts | 12° |
| 2026-04-20 14:57 | 62.35985 | 74.76088 | 15279 ft | 271 kts | 12° |
| 2026-04-20 14:58 | 62.37804 | 74.77124 | 15279 ft | 271 kts | 12° |
| 2026-04-20 14:58 | 62.39625 | 74.78161 | 15279 ft | 271 kts | 12° |
| 2026-04-20 14:58 | 62.41449 | 74.79204 | 15279 ft | 271 kts | 12° |
| 2026-04-20 14:58 | 62.43273 | 74.80250 | 15185 ft | 274 kts | 12° |
| 2026-04-20 14:59 | 62.45138 | 74.81340 | 14851 ft | 274 kts | 13° |
| 2026-04-20 14:59 | 62.46948 | 74.82443 | 14463 ft | 269 kts | 14° |
| 2026-04-20 14:59 | 62.48740 | 74.83525 | 14079 ft | 266 kts | 13° |
| 2026-04-20 14:59 | 62.50525 | 74.84552 | 13645 ft | 264 kts | 13° |
| 2026-04-20 15:00 | 62.52293 | 74.85554 | 13218 ft | 262 kts | 13° |
| 2026-04-20 15:00 | 62.54027 | 74.86537 | 12802 ft | 260 kts | 13° |
| 2026-04-20 15:00 | 62.55772 | 74.87542 | 12395 ft | 259 kts | 13° |
| 2026-04-20 15:00 | 62.57504 | 74.88536 | 11985 ft | 257 kts | 13° |
| 2026-04-20 15:01 | 62.59229 | 74.89556 | 11581 ft | 256 kts | 14° |
| 2026-04-20 15:01 | 62.60945 | 74.90609 | 11180 ft | 255 kts | 15° |
| 2026-04-20 15:01 | 62.62650 | 74.91665 | 10785 ft | 254 kts | 15° |
| 2026-04-20 15:01 | 62.64347 | 74.92710 | 10400 ft | 253 kts | 15° |
| 2026-04-20 15:02 | 62.66042 | 74.93762 | 9993 ft | 253 kts | 15° |
| 2026-04-20 15:02 | 62.67728 | 74.94811 | 9566 ft | 252 kts | 15° |
| 2026-04-20 15:02 | 62.69408 | 74.95853 | 9148 ft | 251 kts | 15° |
| 2026-04-20 15:02 | 62.71084 | 74.96896 | 8732 ft | 250 kts | 15° |
| 2026-04-20 15:03 | 62.72753 | 74.97932 | 8316 ft | 249 kts | 15° |
| 2026-04-20 15:03 | 62.74411 | 74.98960 | 7916 ft | 248 kts | 15° |
| 2026-04-20 15:03 | 62.76067 | 74.99982 | 7514 ft | 247 kts | 15° |
| 2026-04-20 15:03 | 62.77718 | 75.01004 | 7113 ft | 246 kts | 15° |
| 2026-04-20 15:04 | 62.79363 | 75.02014 | 6724 ft | 245 kts | 15° |
| 2026-04-20 15:04 | 62.81003 | 75.02990 | 6302 ft | 244 kts | 14° |
| 2026-04-20 15:04 | 62.82613 | 75.03939 | 5903 ft | 242 kts | 14° |
| 2026-04-20 15:04 | 62.84213 | 75.04886 | 5489 ft | 224 kts | 15° |
| 2026-04-20 15:05 | 62.85638 | 75.05719 | 5086 ft | 206 kts | 15° |
| 2026-04-20 15:05 | 62.86974 | 75.06507 | 4664 ft | 192 kts | 15° |
| 2026-04-20 15:05 | 62.88232 | 75.07248 | 4238 ft | 183 kts | 14° |
| 2026-04-20 15:05 | 62.89422 | 75.07948 | 3845 ft | 171 kts | 15° |
| 2026-04-20 15:06 | 62.90539 | 75.08614 | 3444 ft | 163 kts | 15° |
| 2026-04-20 15:06 | 62.91614 | 75.09246 | 3033 ft | 156 kts | 15° |
| 2026-04-20 15:06 | 62.92651 | 75.09858 | 2620 ft | 153 kts | 15° |
| 2026-04-20 15:06 | 62.93668 | 75.10460 | 2206 ft | 150 kts | 15° |
| 2026-04-20 15:07 | 62.94653 | 75.11034 | 1962 ft | 143 kts | 15° |
| 2026-04-20 15:07 | 62.95576 | 75.11565 | 1868 ft | 131 kts | 15° |
| 2026-04-20 15:07 | 62.96392 | 75.12032 | 1825 ft | 109 kts | 15° |
| 2026-04-20 15:07 | 62.97065 | 75.12406 | 1758 ft | 94 kts | 14° |
| 2026-04-20 15:08 | 62.97705 | 75.12667 | 1627 ft | 95 kts | 9° |
| 2026-04-20 15:08 | 62.98368 | 75.12860 | 1558 ft | 97 kts | 8° |
| 2026-04-20 15:08 | 62.99036 | 75.13059 | 1494 ft | 97 kts | 9° |
| 2026-04-20 15:08 | 62.99712 | 75.13267 | 1433 ft | 100 kts | 9° |
| 2026-04-20 15:09 | 63.00414 | 75.13492 | 1398 ft | 103 kts | 9° |
| 2026-04-20 15:09 | 63.01130 | 75.13725 | 1378 ft | 105 kts | 9° |
| 2026-04-20 15:09 | 63.01855 | 75.13963 | 1363 ft | 106 kts | 9° |
| 2026-04-20 15:09 | 63.02576 | 75.14192 | 1350 ft | 106 kts | 9° |
| 2026-04-20 15:10 | 63.03311 | 75.14426 | 1338 ft | 107 kts | 9° |
| 2026-04-20 15:10 | 63.04048 | 75.14663 | 1323 ft | 107 kts | 9° |
| 2026-04-20 15:10 | 63.04784 | 75.14902 | 1308 ft | 107 kts | 9° |
| 2026-04-20 15:10 | 63.05522 | 75.15148 | 1291 ft | 107 kts | 9° |
| 2026-04-20 15:11 | 63.06259 | 75.15396 | 1279 ft | 107 kts | 9° |
| 2026-04-20 15:11 | 63.06999 | 75.15648 | 1261 ft | 107 kts | 9° |
| 2026-04-20 15:11 | 63.07736 | 75.15907 | 1248 ft | 107 kts | 13° |
| 2026-04-20 15:11 | 63.08423 | 75.16543 | 1231 ft | 108 kts | 26° |
| 2026-04-20 15:12 | 63.09085 | 75.17323 | 1224 ft | 108 kts | 27° |
| 2026-04-20 15:12 | 63.09751 | 75.18073 | 1213 ft | 107 kts | 25° |
| 2026-04-20 15:12 | 63.10430 | 75.18760 | 1212 ft | 107 kts | 23° |
| 2026-04-20 15:12 | 63.11114 | 75.19418 | 1213 ft | 107 kts | 23° |
| 2026-04-20 15:13 | 63.11791 | 75.20087 | 1198 ft | 107 kts | 24° |
| 2026-04-20 15:13 | 63.12473 | 75.20795 | 1173 ft | 109 kts | 25° |
| 2026-04-20 15:13 | 63.13160 | 75.21517 | 1157 ft | 109 kts | 24° |
| 2026-04-20 15:13 | 63.13849 | 75.22219 | 1135 ft | 110 kts | 24° |
| 2026-04-20 15:14 | 63.14543 | 75.22924 | 1101 ft | 110 kts | 24° |
| 2026-04-20 15:14 | 63.15246 | 75.23653 | 979 ft | 116 kts | 24° |
| 2026-04-20 15:14 | 63.15998 | 75.24418 | 806 ft | 121 kts | 24° |
| 2026-04-20 15:14 | 63.16764 | 75.25212 | 628 ft | 123 kts | 25° |
| 2026-04-20 15:15 | 63.17523 | 75.25999 | 483 ft | 118 kts | 24° |
| 2026-04-20 15:15 | 63.18077 | 75.26556 | 454 ft | 27 kts | 25° |
| 2026-04-20 15:15 | 63.18139 | 75.26622 | 456 ft | 19 kts | 25° |
| 2026-04-20 15:15 | 63.18252 | 75.26752 | 456 ft | 15 kts | 27° |
| 2026-04-20 15:16 | 63.18333 | 75.26853 | 455 ft | 12 kts | 58° |
| 2026-04-20 15:16 | 63.18319 | 75.27027 | 453 ft | 12 kts | 115° |
| 2026-04-20 15:16 | 63.18285 | 75.27186 | 453 ft | 1 kts | 115° |
| 2026-04-20 15:16 | 63.18257 | 75.27234 | 453 ft | 8 kts | 174° |
| 2026-04-20 15:17 | 63.18224 | 75.27240 | 455 ft | 2 kts | 135° |
| 2026-04-20 15:17 | 63.18214 | 75.27271 | 453 ft | 3 kts | 118° |
| 2026-04-20 15:17 | 63.18213 | 75.27276 | 453 ft | 0 kts | 118° |
| 2026-04-20 15:23 | 63.18291 | 75.27160 | 453 ft | 12 kts | 115° |
| 2026-04-20 15:23 | 63.18101 | 75.26581 | 455 ft | 0 kts | 25° |
| 2026-04-20 15:23 | 63.16680 | 75.25044 | 510 ft | 26 kts | 167° |
| 2026-04-20 15:24 | 63.16695 | 75.25026 | 480 ft | 0 kts | 320° |
| 2026-04-20 15:24 | 63.17403 | 75.25910 | 454 ft | 69 kts | 33° |
| 2026-04-20 15:24 | 63.17642 | 75.26122 | 478 ft | 114 kts | 24° |
| 2026-04-20 15:24 | 63.17346 | 75.25817 | 466 ft | 123 kts | 24° |
| 2026-04-20 15:25 | 63.17840 | 75.26327 | 457 ft | 107 kts | 24° |
| 2026-04-20 15:25 | 63.18104 | 75.26585 | 456 ft | 5 kts | 25° |
| 2026-04-20 15:25 | 63.18211 | 75.26698 | 454 ft | 17 kts | 31° |
| 2026-04-20 15:25 | 63.17662 | 75.26142 | 477 ft | 113 kts | 24° |
| 2026-04-20 15:26 | 63.11354 | 75.19650 | 1211 ft | 107 kts | 23° |
| 2026-04-20 15:26 | 63.15399 | 75.23809 | 1016 ft | 118 kts | 24° |
| 2026-04-20 15:26 | 63.17658 | 75.26138 | 471 ft | 113 kts | 24° |
| 2026-04-20 15:26 | 63.18096 | 75.26576 | 455 ft | 7 kts | 25° |
| 2026-04-20 15:27 | 63.18170 | 75.26654 | 457 ft | 22 kts | 25° |
| 2026-04-20 15:27 | 63.17378 | 75.25850 | 503 ft | 121 kts | 24° |